Blocker, Texas
Current Conditions -  °F | °C
As of 7:15 PM on Friday 28 Nov 2014 (Local Time) from KASL Reporting Station
Clear Clear  
Wind Chill: 58°   Ceiling: Unl
Heat Index: 58°   Visibility: 10mi
Dew Point: 51°   Wind: 6mph
Humidity: 76%   Direction: 170°S
Pressure: 30.12"   Gusts: NA
Location:  32.4675°N, 94.3321°W
Report Text: KASL 290115Z AUTO 17005KT 10SM CLR 15/11 A3012 RMK AO1 T01460105
Loading
Personal Weather Stations






























Interactive Weather Map New forecast layout! Learn more

10-Day Weather Forecast

Advertisements
Track Severe Weather on mobile